Página principal
METAR-TAF:

METAR-TAF

Aeroportos :

Nouméa, Nova Caledónia

latitude: 22-15-30S, longitude: 166-28-22E, altura: 3 m

METAR: em falta

Hora: 14:00 (03:00 UTC)

Previsão

O boletim foi feito há 10 horas e 0 minutos, às 17:00 UTC
Previsão válida de 22 às 18 UTC a 23 às 18 UTC
Vento 12 kt de este
Visibilidade 10 km ou mais
Poucas nuvensa uma altura de 4500 ft

TAF: NWWM 221700Z 2218/2318 09012KT 9999 FEW045

Observações e previsões do tempo de mais de 4000 aeroportos (mensagens METAR e TAF).

As estações disponíveis são os pontos amarelos e vermelhos sobre o mapa.

Mova o rato sobre o mapa para ver o nome da estação.

Depois clique no ponto para visualizar as observações e previsões meteorológicas.

Para alterar o mapa : clique nos botões verdes com uma cruz preta para aumentar o zoom; no botão verde com uma pitada de zoom; ou nas setas verdes para mapas adjacentes.


METAR-TAF: